sensor_id;sensor_type;location;lat;lon;timestamp;temperature;humidity
12315;DHT22;23886;46.614;14.276;2023-02-15T00:00:19;-3.30;99.90
12315;DHT22;23886;46.614;14.276;2023-02-15T00:02:46;-3.30;99.90
12315;DHT22;23886;46.614;14.276;2023-02-15T00:05:13;-3.30;99.90
12315;DHT22;23886;46.614;14.276;2023-02-15T00:07:42;-3.30;99.90
12315;DHT22;23886;46.614;14.276;2023-02-15T00:10:09;-3.20;99.90
12315;DHT22;23886;46.614;14.276;2023-02-15T00:12:37;-3.50;99.90
12315;DHT22;23886;46.614;14.276;2023-02-15T00:15:04;-3.50;99.90
12315;DHT22;23886;46.614;14.276;2023-02-15T00:17:31;-3.50;99.90
12315;DHT22;23886;46.614;14.276;2023-02-15T00:19:58;-3.50;99.90
12315;DHT22;23886;46.614;14.276;2023-02-15T00:22:25;-3.50;99.90
12315;DHT22;23886;46.614;14.276;2023-02-15T00:24:54;-3.60;99.90
12315;DHT22;23886;46.614;14.276;2023-02-15T00:27:21;-3.60;99.90
12315;DHT22;23886;46.614;14.276;2023-02-15T00:29:48;-3.60;99.90
12315;DHT22;23886;46.614;14.276;2023-02-15T00:32:15;-3.60;99.90
12315;DHT22;23886;46.614;14.276;2023-02-15T00:34:41;-3.70;99.90
12315;DHT22;23886;46.614;14.276;2023-02-15T00:37:08;-3.80;99.90
12315;DHT22;23886;46.614;14.276;2023-02-15T00:39:35;-3.90;99.90
12315;DHT22;23886;46.614;14.276;2023-02-15T00:42:04;-3.90;99.90
12315;DHT22;23886;46.614;14.276;2023-02-15T00:44:31;-3.80;99.90
12315;DHT22;23886;46.614;14.276;2023-02-15T00:46:58;-3.90;99.90
12315;DHT22;23886;46.614;14.276;2023-02-15T00:49:25;-3.90;99.90
12315;DHT22;23886;46.614;14.276;2023-02-15T00:51:52;-4.00;99.90
12315;DHT22;23886;46.614;14.276;2023-02-15T00:54:19;-4.00;99.90
12315;DHT22;23886;46.614;14.276;2023-02-15T00:56:46;-3.90;99.90
12315;DHT22;23886;46.614;14.276;2023-02-15T00:59:14;-3.80;99.90
12315;DHT22;23886;46.614;14.276;2023-02-15T01:01:41;-3.70;99.90
12315;DHT22;23886;46.614;14.276;2023-02-15T01:04:08;-3.70;99.90
12315;DHT22;23886;46.614;14.276;2023-02-15T01:06:35;-3.60;99.90
12315;DHT22;23886;46.614;14.276;2023-02-15T01:09:02;-3.70;99.90
12315;DHT22;23886;46.614;14.276;2023-02-15T01:11:29;-3.80;99.90
12315;DHT22;23886;46.614;14.276;2023-02-15T01:13:57;-3.90;99.90
12315;DHT22;23886;46.614;14.276;2023-02-15T01:16:27;-4.00;99.90
12315;DHT22;23886;46.614;14.276;2023-02-15T01:18:55;-4.10;99.90
12315;DHT22;23886;46.614;14.276;2023-02-15T01:21:24;-4.20;99.90
12315;DHT22;23886;46.614;14.276;2023-02-15T01:23:51;-4.00;99.90
12315;DHT22;23886;46.614;14.276;2023-02-15T01:26:18;-3.90;99.90
12315;DHT22;23886;46.614;14.276;2023-02-15T01:28:46;-3.90;99.90
12315;DHT22;23886;46.614;14.276;2023-02-15T01:31:15;-3.80;99.90
12315;DHT22;23886;46.614;14.276;2023-02-15T01:33:44;-3.90;99.90
12315;DHT22;23886;46.614;14.276;2023-02-15T01:36:11;-4.00;99.90
12315;DHT22;23886;46.614;14.276;2023-02-15T01:38:38;-4.00;99.90
12315;DHT22;23886;46.614;14.276;2023-02-15T01:41:07;-4.00;99.90
12315;DHT22;23886;46.614;14.276;2023-02-15T01:43:54;-4.00;99.90
12315;DHT22;23886;46.614;14.276;2023-02-15T01:46:25;-4.00;99.90
12315;DHT22;23886;46.614;14.276;2023-02-15T01:48:59;-4.20;99.90
12315;DHT22;23886;46.614;14.276;2023-02-15T01:51:28;-4.10;99.90
12315;DHT22;23886;46.614;14.276;2023-02-15T01:54:00;-4.10;99.90
12315;DHT22;23886;46.614;14.276;2023-02-15T01:56:31;-4.20;99.90
12315;DHT22;23886;46.614;14.276;2023-02-15T01:59:03;-4.10;99.90
12315;DHT22;23886;46.614;14.276;2023-02-15T02:01:32;-4.10;99.90
12315;DHT22;23886;46.614;14.276;2023-02-15T02:04:04;-4.30;99.90
12315;DHT22;23886;46.614;14.276;2023-02-15T02:06:33;-4.20;99.90
12315;DHT22;23886;46.614;14.276;2023-02-15T02:09:03;-4.30;99.90
12315;DHT22;23886;46.614;14.276;2023-02-15T02:11:31;-4.20;99.90
12315;DHT22;23886;46.614;14.276;2023-02-15T02:13:58;-4.20;99.90
12315;DHT22;23886;46.614;14.276;2023-02-15T02:16:28;-4.20;99.90
12315;DHT22;23886;46.614;14.276;2023-02-15T02:19:44;-4.30;99.90
12315;DHT22;23886;46.614;14.276;2023-02-15T02:22:32;-4.30;99.90
12315;DHT22;23886;46.614;14.276;2023-02-15T02:25:29;-4.40;99.90
12315;DHT22;23886;46.614;14.276;2023-02-15T02:28:12;-4.40;99.90
12315;DHT22;23886;46.614;14.276;2023-02-15T02:31:03;-4.40;99.90
12315;DHT22;23886;46.614;14.276;2023-02-15T02:33:48;-4.50;99.90
12315;DHT22;23886;46.614;14.276;2023-02-15T02:36:25;-4.60;99.90
12315;DHT22;23886;46.614;14.276;2023-02-15T02:39:15;-4.60;99.90
12315;DHT22;23886;46.614;14.276;2023-02-15T02:41:51;-4.60;99.90
12315;DHT22;23886;46.614;14.276;2023-02-15T02:44:24;-4.50;99.90
12315;DHT22;23886;46.614;14.276;2023-02-15T02:46:54;-4.30;99.90
12315;DHT22;23886;46.614;14.276;2023-02-15T02:49:33;-4.30;99.90
12315;DHT22;23886;46.614;14.276;2023-02-15T02:52:00;-4.30;99.90
12315;DHT22;23886;46.614;14.276;2023-02-15T02:54:29;-4.30;99.90
12315;DHT22;23886;46.614;14.276;2023-02-15T02:56:59;-4.30;99.90
12315;DHT22;23886;46.614;14.276;2023-02-15T02:59:31;-4.40;99.90
12315;DHT22;23886;46.614;14.276;2023-02-15T03:02:03;-4.50;99.90
12315;DHT22;23886;46.614;14.276;2023-02-15T03:04:36;-4.60;99.90
12315;DHT22;23886;46.614;14.276;2023-02-15T03:07:07;-4.60;99.90
12315;DHT22;23886;46.614;14.276;2023-02-15T03:09:36;-4.60;99.90
12315;DHT22;23886;46.614;14.276;2023-02-15T03:12:08;-4.50;99.90
12315;DHT22;23886;46.614;14.276;2023-02-15T03:14:36;-4.60;99.90
12315;DHT22;23886;46.614;14.276;2023-02-15T03:17:05;-4.80;99.90
12315;DHT22;23886;46.614;14.276;2023-02-15T03:19:36;-4.90;99.90
12315;DHT22;23886;46.614;14.276;2023-02-15T03:22:05;-4.80;99.90
12315;DHT22;23886;46.614;14.276;2023-02-15T03:24:38;-4.70;99.90
12315;DHT22;23886;46.614;14.276;2023-02-15T03:27:10;-4.70;99.90
12315;DHT22;23886;46.614;14.276;2023-02-15T03:29:38;-4.50;99.90
12315;DHT22;23886;46.614;14.276;2023-02-15T03:32:07;-4.50;99.90
12315;DHT22;23886;46.614;14.276;2023-02-15T03:34:38;-4.60;99.90
12315;DHT22;23886;46.614;14.276;2023-02-15T03:37:10;-4.70;99.90
12315;DHT22;23886;46.614;14.276;2023-02-15T03:39:44;-4.80;99.90
12315;DHT22;23886;46.614;14.276;2023-02-15T03:42:16;-4.80;99.90
12315;DHT22;23886;46.614;14.276;2023-02-15T03:44:53;-4.80;99.90
12315;DHT22;23886;46.614;14.276;2023-02-15T03:47:23;-4.80;99.90
12315;DHT22;23886;46.614;14.276;2023-02-15T03:49:55;-4.80;99.90
12315;DHT22;23886;46.614;14.276;2023-02-15T03:52:25;-4.70;99.90
12315;DHT22;23886;46.614;14.276;2023-02-15T03:54:53;-4.60;99.90
12315;DHT22;23886;46.614;14.276;2023-02-15T03:57:22;-4.50;99.90
12315;DHT22;23886;46.614;14.276;2023-02-15T04:00:12;-4.50;99.90
12315;DHT22;23886;46.614;14.276;2023-02-15T04:03:23;-4.70;99.90
12315;DHT22;23886;46.614;14.276;2023-02-15T04:05:54;-4.70;99.90
12315;DHT22;23886;46.614;14.276;2023-02-15T04:08:21;-4.50;99.90
12315;DHT22;23886;46.614;14.276;2023-02-15T04:11:08;-4.50;99.90
12315;DHT22;23886;46.614;14.276;2023-02-15T04:13:34;-4.50;99.90
12315;DHT22;23886;46.614;14.276;2023-02-15T04:16:01;-4.30;99.90
12315;DHT22;23886;46.614;14.276;2023-02-15T04:18:31;-4.40;99.90
12315;DHT22;23886;46.614;14.276;2023-02-15T04:21:18;-4.30;99.90
12315;DHT22;23886;46.614;14.276;2023-02-15T04:24:03;-4.10;99.90
12315;DHT22;23886;46.614;14.276;2023-02-15T04:26:47;-4.00;99.90
12315;DHT22;23886;46.614;14.276;2023-02-15T04:29:18;-4.00;99.90
12315;DHT22;23886;46.614;14.276;2023-02-15T04:31:45;-3.80;99.90
12315;DHT22;23886;46.614;14.276;2023-02-15T04:34:12;-3.80;99.90
12315;DHT22;23886;46.614;14.276;2023-02-15T04:36:40;-3.80;99.90
12315;DHT22;23886;46.614;14.276;2023-02-15T04:39:08;-3.80;99.90
12315;DHT22;23886;46.614;14.276;2023-02-15T04:41:35;-3.70;99.90
12315;DHT22;23886;46.614;14.276;2023-02-15T04:44:02;-3.70;99.90
12315;DHT22;23886;46.614;14.276;2023-02-15T04:46:29;-3.70;99.90
12315;DHT22;23886;46.614;14.276;2023-02-15T04:48:56;-3.80;99.90
12315;DHT22;23886;46.614;14.276;2023-02-15T04:51:24;-3.80;99.90
12315;DHT22;23886;46.614;14.276;2023-02-15T04:53:52;-3.90;99.90
12315;DHT22;23886;46.614;14.276;2023-02-15T04:56:20;-3.90;99.90
12315;DHT22;23886;46.614;14.276;2023-02-15T04:58:47;-3.90;99.90
12315;DHT22;23886;46.614;14.276;2023-02-15T05:01:14;-3.90;99.90
12315;DHT22;23886;46.614;14.276;2023-02-15T05:03:41;-3.80;99.90
12315;DHT22;23886;46.614;14.276;2023-02-15T05:06:08;-3.70;99.90
12315;DHT22;23886;46.614;14.276;2023-02-15T05:08:35;-3.60;99.90
12315;DHT22;23886;46.614;14.276;2023-02-15T05:11:03;-3.60;99.90
12315;DHT22;23886;46.614;14.276;2023-02-15T05:13:30;-3.60;99.90
12315;DHT22;23886;46.614;14.276;2023-02-15T05:15:57;-3.70;99.90
12315;DHT22;23886;46.614;14.276;2023-02-15T05:18:24;-3.60;99.90
12315;DHT22;23886;46.614;14.276;2023-02-15T05:20:51;-3.60;99.90
12315;DHT22;23886;46.614;14.276;2023-02-15T05:23:18;-3.60;99.90
12315;DHT22;23886;46.614;14.276;2023-02-15T05:25:49;-3.70;99.90
12315;DHT22;23886;46.614;14.276;2023-02-15T05:28:36;-3.60;99.90
12315;DHT22;23886;46.614;14.276;2023-02-15T05:31:06;-3.70;99.90
12315;DHT22;23886;46.614;14.276;2023-02-15T05:33:34;-3.60;99.90
12315;DHT22;23886;46.614;14.276;2023-02-15T05:36:01;-3.60;99.90
12315;DHT22;23886;46.614;14.276;2023-02-15T05:38:29;-3.50;99.90
12315;DHT22;23886;46.614;14.276;2023-02-15T05:40:56;-3.50;99.90
12315;DHT22;23886;46.614;14.276;2023-02-15T05:43:23;-3.50;99.90
12315;DHT22;23886;46.614;14.276;2023-02-15T05:45:53;-3.40;99.90
12315;DHT22;23886;46.614;14.276;2023-02-15T05:48:22;-3.40;99.90
12315;DHT22;23886;46.614;14.276;2023-02-15T05:50:57;-3.50;99.90
12315;DHT22;23886;46.614;14.276;2023-02-15T05:53:25;-3.50;99.90
12315;DHT22;23886;46.614;14.276;2023-02-15T05:55:52;-3.50;99.90
12315;DHT22;23886;46.614;14.276;2023-02-15T05:58:19;-3.50;99.90
12315;DHT22;23886;46.614;14.276;2023-02-15T06:00:46;-3.40;99.90
12315;DHT22;23886;46.614;14.276;2023-02-15T06:03:14;-3.30;99.90
12315;DHT22;23886;46.614;14.276;2023-02-15T06:05:42;-3.30;99.90
12315;DHT22;23886;46.614;14.276;2023-02-15T06:08:08;-3.20;99.90
12315;DHT22;23886;46.614;14.276;2023-02-15T06:10:35;-3.10;99.90
12315;DHT22;23886;46.614;14.276;2023-02-15T06:13:02;-3.10;99.90
12315;DHT22;23886;46.614;14.276;2023-02-15T06:15:30;-3.00;99.90
12315;DHT22;23886;46.614;14.276;2023-02-15T06:17:57;-3.00;99.90
12315;DHT22;23886;46.614;14.276;2023-02-15T06:20:25;-3.10;99.90
12315;DHT22;23886;46.614;14.276;2023-02-15T06:22:52;-3.10;99.90
12315;DHT22;23886;46.614;14.276;2023-02-15T06:25:19;-3.00;99.90
12315;DHT22;23886;46.614;14.276;2023-02-15T06:27:46;-3.20;99.90
12315;DHT22;23886;46.614;14.276;2023-02-15T06:30:15;-3.00;99.90
12315;DHT22;23886;46.614;14.276;2023-02-15T06:32:42;-3.00;99.90
12315;DHT22;23886;46.614;14.276;2023-02-15T06:35:08;-3.00;99.90
12315;DHT22;23886;46.614;14.276;2023-02-15T06:37:37;-2.80;99.90
12315;DHT22;23886;46.614;14.276;2023-02-15T06:40:05;-2.90;99.90
12315;DHT22;23886;46.614;14.276;2023-02-15T06:42:32;-2.70;99.90
12315;DHT22;23886;46.614;14.276;2023-02-15T06:44:59;-2.60;99.90
12315;DHT22;23886;46.614;14.276;2023-02-15T06:47:26;-2.50;99.90
12315;DHT22;23886;46.614;14.276;2023-02-15T06:49:53;-2.70;99.90
12315;DHT22;23886;46.614;14.276;2023-02-15T06:52:20;-2.80;99.90
12315;DHT22;23886;46.614;14.276;2023-02-15T06:54:48;-2.80;99.90
12315;DHT22;23886;46.614;14.276;2023-02-15T06:57:15;-3.00;99.90
12315;DHT22;23886;46.614;14.276;2023-02-15T06:59:42;-3.00;99.90
12315;DHT22;23886;46.614;14.276;2023-02-15T07:02:11;-2.90;99.90
12315;DHT22;23886;46.614;14.276;2023-02-15T07:04:38;-2.70;99.90
12315;DHT22;23886;46.614;14.276;2023-02-15T07:07:09;-2.50;99.90
12315;DHT22;23886;46.614;14.276;2023-02-15T07:09:37;-2.60;99.90
12315;DHT22;23886;46.614;14.276;2023-02-15T07:12:06;-2.50;99.90
12315;DHT22;23886;46.614;14.276;2023-02-15T07:14:50;-2.40;99.90
12315;DHT22;23886;46.614;14.276;2023-02-15T07:17:18;-2.00;99.90
12315;DHT22;23886;46.614;14.276;2023-02-15T07:19:45;-2.10;99.90
12315;DHT22;23886;46.614;14.276;2023-02-15T07:22:12;-2.10;99.90
12315;DHT22;23886;46.614;14.276;2023-02-15T07:24:39;-2.20;99.90
12315;DHT22;23886;46.614;14.276;2023-02-15T07:27:08;-2.00;99.90
12315;DHT22;23886;46.614;14.276;2023-02-15T07:29:34;-2.00;99.90
12315;DHT22;23886;46.614;14.276;2023-02-15T07:32:01;-1.80;99.90
12315;DHT22;23886;46.614;14.276;2023-02-15T07:34:28;-1.80;99.90
12315;DHT22;23886;46.614;14.276;2023-02-15T07:36:55;-1.80;99.90
12315;DHT22;23886;46.614;14.276;2023-02-15T07:39:22;-1.70;99.90
12315;DHT22;23886;46.614;14.276;2023-02-15T07:41:49;-1.60;99.90
12315;DHT22;23886;46.614;14.276;2023-02-15T07:44:18;-1.40;99.90
12315;DHT22;23886;46.614;14.276;2023-02-15T07:46:44;-1.30;99.90
12315;DHT22;23886;46.614;14.276;2023-02-15T07:49:11;-1.00;99.90
12315;DHT22;23886;46.614;14.276;2023-02-15T07:51:40;-1.00;99.90
12315;DHT22;23886;46.614;14.276;2023-02-15T07:54:07;-0.90;99.90
12315;DHT22;23886;46.614;14.276;2023-02-15T07:56:34;-1.10;99.90
12315;DHT22;23886;46.614;14.276;2023-02-15T07:59:01;-1.20;99.90
12315;DHT22;23886;46.614;14.276;2023-02-15T08:01:34;-1.00;99.90
12315;DHT22;23886;46.614;14.276;2023-02-15T08:04:02;-1.00;99.90
12315;DHT22;23886;46.614;14.276;2023-02-15T08:06:32;-0.90;99.90
12315;DHT22;23886;46.614;14.276;2023-02-15T08:08:59;-1.00;99.90
12315;DHT22;23886;46.614;14.276;2023-02-15T08:11:28;-0.70;99.90
12315;DHT22;23886;46.614;14.276;2023-02-15T08:14:00;-0.60;99.90
12315;DHT22;23886;46.614;14.276;2023-02-15T08:16:32;-0.90;99.90
12315;DHT22;23886;46.614;14.276;2023-02-15T08:19:00;-0.80;99.90
12315;DHT22;23886;46.614;14.276;2023-02-15T08:21:28;-1.10;99.90
12315;DHT22;23886;46.614;14.276;2023-02-15T08:23:56;-0.90;99.90
12315;DHT22;23886;46.614;14.276;2023-02-15T08:26:24;-0.90;99.90
12315;DHT22;23886;46.614;14.276;2023-02-15T08:28:51;-1.00;99.90
12315;DHT22;23886;46.614;14.276;2023-02-15T08:31:18;-1.20;99.90
12315;DHT22;23886;46.614;14.276;2023-02-15T08:33:48;-1.40;99.90
12315;DHT22;23886;46.614;14.276;2023-02-15T08:36:17;-1.10;99.90
12315;DHT22;23886;46.614;14.276;2023-02-15T08:38:45;-1.10;99.90
12315;DHT22;23886;46.614;14.276;2023-02-15T08:41:14;-1.10;99.90
12315;DHT22;23886;46.614;14.276;2023-02-15T08:43:41;-0.90;99.90
12315;DHT22;23886;46.614;14.276;2023-02-15T08:46:11;-0.80;99.90
12315;DHT22;23886;46.614;14.276;2023-02-15T08:48:38;-0.70;99.90
12315;DHT22;23886;46.614;14.276;2023-02-15T08:51:08;-0.10;99.90
12315;DHT22;23886;46.614;14.276;2023-02-15T08:53:37;0.30;99.90
12315;DHT22;23886;46.614;14.276;2023-02-15T08:56:05;0.50;99.90
12315;DHT22;23886;46.614;14.276;2023-02-15T08:58:32;0.30;99.90
12315;DHT22;23886;46.614;14.276;2023-02-15T09:01:00;-0.10;99.90
12315;DHT22;23886;46.614;14.276;2023-02-15T09:03:28;-0.10;99.90
12315;DHT22;23886;46.614;14.276;2023-02-15T09:05:59;0.30;99.90
12315;DHT22;23886;46.614;14.276;2023-02-15T09:08:28;0.10;99.90
12315;DHT22;23886;46.614;14.276;2023-02-15T09:11:04;0.20;99.90
12315;DHT22;23886;46.614;14.276;2023-02-15T09:13:31;0.20;99.90
12315;DHT22;23886;46.614;14.276;2023-02-15T09:16:00;0.00;99.90
12315;DHT22;23886;46.614;14.276;2023-02-15T09:18:27;-0.10;99.90
12315;DHT22;23886;46.614;14.276;2023-02-15T09:20:54;-0.10;99.90
12315;DHT22;23886;46.614;14.276;2023-02-15T09:23:21;-0.30;99.90
12315;DHT22;23886;46.614;14.276;2023-02-15T09:25:50;-0.50;99.90
12315;DHT22;23886;46.614;14.276;2023-02-15T09:28:17;-0.50;99.90
12315;DHT22;23886;46.614;14.276;2023-02-15T09:30:44;-0.60;99.90
12315;DHT22;23886;46.614;14.276;2023-02-15T09:33:11;-0.50;99.90
12315;DHT22;23886;46.614;14.276;2023-02-15T09:35:38;-0.30;99.90
12315;DHT22;23886;46.614;14.276;2023-02-15T09:38:04;-0.10;99.90
12315;DHT22;23886;46.614;14.276;2023-02-15T09:40:36;0.20;99.90
12315;DHT22;23886;46.614;14.276;2023-02-15T09:43:19;0.30;99.90
12315;DHT22;23886;46.614;14.276;2023-02-15T09:46:00;0.50;99.90
12315;DHT22;23886;46.614;14.276;2023-02-15T09:48:40;0.70;99.90
12315;DHT22;23886;46.614;14.276;2023-02-15T09:51:32;0.70;99.90
12315;DHT22;23886;46.614;14.276;2023-02-15T09:54:23;0.90;99.90
12315;DHT22;23886;46.614;14.276;2023-02-15T09:56:56;1.10;99.90
12315;DHT22;23886;46.614;14.276;2023-02-15T09:59:33;1.30;99.90
12315;DHT22;23886;46.614;14.276;2023-02-15T10:02:14;1.20;99.90
12315;DHT22;23886;46.614;14.276;2023-02-15T10:04:53;1.30;99.90
12315;DHT22;23886;46.614;14.276;2023-02-15T10:07:35;1.40;99.90
12315;DHT22;23886;46.614;14.276;2023-02-15T10:10:17;1.50;99.90
12315;DHT22;23886;46.614;14.276;2023-02-15T10:12:57;1.90;99.90
12315;DHT22;23886;46.614;14.276;2023-02-15T10:15:35;2.20;99.90
12315;DHT22;23886;46.614;14.276;2023-02-15T10:18:23;2.30;99.90
12315;DHT22;23886;46.614;14.276;2023-02-15T10:20:57;2.30;99.90
12315;DHT22;23886;46.614;14.276;2023-02-15T10:23:44;2.50;99.90
12315;DHT22;23886;46.614;14.276;2023-02-15T10:26:17;2.60;99.90
12315;DHT22;23886;46.614;14.276;2023-02-15T10:28:48;2.70;99.90
12315;DHT22;23886;46.614;14.276;2023-02-15T10:31:23;2.70;99.90
12315;DHT22;23886;46.614;14.276;2023-02-15T10:34:07;2.70;99.90
12315;DHT22;23886;46.614;14.276;2023-02-15T10:36:53;2.90;99.90
12315;DHT22;23886;46.614;14.276;2023-02-15T10:39:28;2.90;99.90
12315;DHT22;23886;46.614;14.276;2023-02-15T10:42:06;3.20;99.90
12315;DHT22;23886;46.614;14.276;2023-02-15T10:44:47;3.20;99.90
12315;DHT22;23886;46.614;14.276;2023-02-15T10:47:42;3.50;99.90
12315;DHT22;23886;46.614;14.276;2023-02-15T10:50:20;3.60;99.90
12315;DHT22;23886;46.614;14.276;2023-02-15T10:53:05;3.80;99.90
12315;DHT22;23886;46.614;14.276;2023-02-15T10:55:43;3.80;99.90
12315;DHT22;23886;46.614;14.276;2023-02-15T10:58:19;4.00;99.90
12315;DHT22;23886;46.614;14.276;2023-02-15T11:00:54;4.20;99.90
12315;DHT22;23886;46.614;14.276;2023-02-15T11:03:58;4.40;99.90
12315;DHT22;23886;46.614;14.276;2023-02-15T11:06:28;4.40;99.90
12315;DHT22;23886;46.614;14.276;2023-02-15T11:09:00;4.50;99.90
12315;DHT22;23886;46.614;14.276;2023-02-15T11:11:30;4.60;99.90
12315;DHT22;23886;46.614;14.276;2023-02-15T11:14:00;4.70;99.90
12315;DHT22;23886;46.614;14.276;2023-02-15T11:16:32;4.80;99.90
12315;DHT22;23886;46.614;14.276;2023-02-15T11:19:05;4.80;99.90
12315;DHT22;23886;46.614;14.276;2023-02-15T11:21:37;4.90;99.90
12315;DHT22;23886;46.614;14.276;2023-02-15T11:24:10;5.10;99.90
12315;DHT22;23886;46.614;14.276;2023-02-15T11:26:40;5.00;99.90
12315;DHT22;23886;46.614;14.276;2023-02-15T11:29:13;5.00;99.90
12315;DHT22;23886;46.614;14.276;2023-02-15T11:31:46;4.90;99.90
12315;DHT22;23886;46.614;14.276;2023-02-15T11:34:20;5.10;99.90
12315;DHT22;23886;46.614;14.276;2023-02-15T11:36:50;5.30;99.90
12315;DHT22;23886;46.614;14.276;2023-02-15T11:39:20;5.30;99.90
12315;DHT22;23886;46.614;14.276;2023-02-15T11:41:52;5.20;99.90
12315;DHT22;23886;46.614;14.276;2023-02-15T11:44:21;5.10;99.90
12315;DHT22;23886;46.614;14.276;2023-02-15T11:46:51;5.30;99.90
12315;DHT22;23886;46.614;14.276;2023-02-15T11:49:27;5.40;99.90
12315;DHT22;23886;46.614;14.276;2023-02-15T11:51:56;5.30;99.90
12315;DHT22;23886;46.614;14.276;2023-02-15T11:54:28;5.50;99.90
12315;DHT22;23886;46.614;14.276;2023-02-15T11:56:57;5.60;99.90
12315;DHT22;23886;46.614;14.276;2023-02-15T11:59:29;5.60;99.90
12315;DHT22;23886;46.614;14.276;2023-02-15T12:01:58;6.00;99.90
12315;DHT22;23886;46.614;14.276;2023-02-15T12:04:30;6.10;99.90
12315;DHT22;23886;46.614;14.276;2023-02-15T12:07:00;6.10;99.90
12315;DHT22;23886;46.614;14.276;2023-02-15T12:09:33;6.30;99.90
12315;DHT22;23886;46.614;14.276;2023-02-15T12:12:21;6.50;99.90
12315;DHT22;23886;46.614;14.276;2023-02-15T12:14:50;6.70;99.90
12315;DHT22;23886;46.614;14.276;2023-02-15T12:17:18;6.60;99.90
12315;DHT22;23886;46.614;14.276;2023-02-15T12:19:48;6.60;99.90
12315;DHT22;23886;46.614;14.276;2023-02-15T12:22:22;6.60;99.90
12315;DHT22;23886;46.614;14.276;2023-02-15T12:24:51;6.90;99.90
12315;DHT22;23886;46.614;14.276;2023-02-15T12:27:21;6.90;99.90
12315;DHT22;23886;46.614;14.276;2023-02-15T12:29:52;7.00;99.90
12315;DHT22;23886;46.614;14.276;2023-02-15T12:32:23;6.70;99.90
12315;DHT22;23886;46.614;14.276;2023-02-15T12:34:56;6.80;99.90
12315;DHT22;23886;46.614;14.276;2023-02-15T12:37:27;6.70;99.90
12315;DHT22;23886;46.614;14.276;2023-02-15T12:39:58;6.40;99.90
12315;DHT22;23886;46.614;14.276;2023-02-15T12:42:26;6.30;99.90
12315;DHT22;23886;46.614;14.276;2023-02-15T12:44:59;6.20;99.90
12315;DHT22;23886;46.614;14.276;2023-02-15T12:47:27;6.40;99.90
12315;DHT22;23886;46.614;14.276;2023-02-15T12:50:11;6.40;99.90
12315;DHT22;23886;46.614;14.276;2023-02-15T12:52:43;6.70;99.90
12315;DHT22;23886;46.614;14.276;2023-02-15T12:55:19;7.20;99.90
12315;DHT22;23886;46.614;14.276;2023-02-15T12:57:47;7.60;99.90
12315;DHT22;23886;46.614;14.276;2023-02-15T13:00:27;7.50;99.90
12315;DHT22;23886;46.614;14.276;2023-02-15T13:02:57;7.70;99.90
12315;DHT22;23886;46.614;14.276;2023-02-15T13:05:34;7.80;99.60
12315;DHT22;23886;46.614;14.276;2023-02-15T13:08:08;7.50;99.70
12315;DHT22;23886;46.614;14.276;2023-02-15T13:10:39;7.70;99.90
12315;DHT22;23886;46.614;14.276;2023-02-15T13:13:10;7.60;99.90
12315;DHT22;23886;46.614;14.276;2023-02-15T13:15:40;7.50;99.80
12315;DHT22;23886;46.614;14.276;2023-02-15T13:18:16;7.70;99.90
12315;DHT22;23886;46.614;14.276;2023-02-15T13:20:46;7.90;99.80
12315;DHT22;23886;46.614;14.276;2023-02-15T13:23:24;8.00;99.50
12315;DHT22;23886;46.614;14.276;2023-02-15T13:25:54;8.00;98.80
12315;DHT22;23886;46.614;14.276;2023-02-15T13:28:26;8.10;98.50
12315;DHT22;23886;46.614;14.276;2023-02-15T13:30:55;8.40;98.30
12315;DHT22;23886;46.614;14.276;2023-02-15T13:33:26;8.40;98.20
12315;DHT22;23886;46.614;14.276;2023-02-15T13:36:04;8.10;98.60
12315;DHT22;23886;46.614;14.276;2023-02-15T13:39:08;8.30;98.40
12315;DHT22;23886;46.614;14.276;2023-02-15T13:41:50;8.20;98.60
12315;DHT22;23886;46.614;14.276;2023-02-15T13:44:25;8.10;98.60
12315;DHT22;23886;46.614;14.276;2023-02-15T13:47:06;8.20;98.30
12315;DHT22;23886;46.614;14.276;2023-02-15T13:49:45;8.50;98.80
12315;DHT22;23886;46.614;14.276;2023-02-15T13:52:20;8.80;98.70
12315;DHT22;23886;46.614;14.276;2023-02-15T13:55:11;9.20;97.10
12315;DHT22;23886;46.614;14.276;2023-02-15T13:58:08;9.90;95.60
12315;DHT22;23886;46.614;14.276;2023-02-15T14:00:44;10.30;93.10
12315;DHT22;23886;46.614;14.276;2023-02-15T14:03:29;10.40;93.10
12315;DHT22;23886;46.614;14.276;2023-02-15T14:06:26;11.00;92.90
12315;DHT22;23886;46.614;14.276;2023-02-15T14:09:07;10.90;91.80
12315;DHT22;23886;46.614;14.276;2023-02-15T14:11:42;11.00;91.60
12315;DHT22;23886;46.614;14.276;2023-02-15T14:14:37;11.20;91.20
12315;DHT22;23886;46.614;14.276;2023-02-15T14:17:12;11.60;91.30
12315;DHT22;23886;46.614;14.276;2023-02-15T14:19:45;11.60;90.90
12315;DHT22;23886;46.614;14.276;2023-02-15T14:22:22;11.50;90.50
12315;DHT22;23886;46.614;14.276;2023-02-15T14:25:03;11.90;90.20
12315;DHT22;23886;46.614;14.276;2023-02-15T14:27:43;11.60;90.40
12315;DHT22;23886;46.614;14.276;2023-02-15T14:30:17;13.20;88.40
12315;DHT22;23886;46.614;14.276;2023-02-15T14:32:47;13.80;85.10
12315;DHT22;23886;46.614;14.276;2023-02-15T14:35:17;14.10;85.90
12315;DHT22;23886;46.614;14.276;2023-02-15T14:37:49;14.40;84.00
12315;DHT22;23886;46.614;14.276;2023-02-15T14:40:30;14.60;83.10
12315;DHT22;23886;46.614;14.276;2023-02-15T14:43:24;14.60;82.50
12315;DHT22;23886;46.614;14.276;2023-02-15T14:45:54;14.20;81.60
12315;DHT22;23886;46.614;14.276;2023-02-15T14:48:26;14.60;81.90
12315;DHT22;23886;46.614;14.276;2023-02-15T14:50:56;13.50;83.50
12315;DHT22;23886;46.614;14.276;2023-02-15T14:53:36;13.70;81.50
12315;DHT22;23886;46.614;14.276;2023-02-15T14:56:20;13.80;81.50
12315;DHT22;23886;46.614;14.276;2023-02-15T14:59:14;14.10;80.20
12315;DHT22;23886;46.614;14.276;2023-02-15T15:01:52;14.80;82.20
12315;DHT22;23886;46.614;14.276;2023-02-15T15:04:27;15.70;76.90
12315;DHT22;23886;46.614;14.276;2023-02-15T15:07:02;15.60;78.70
12315;DHT22;23886;46.614;14.276;2023-02-15T15:09:34;15.70;77.90
12315;DHT22;23886;46.614;14.276;2023-02-15T15:12:38;16.30;76.00
12315;DHT22;23886;46.614;14.276;2023-02-15T15:15:06;15.00;77.70
12315;DHT22;23886;46.614;14.276;2023-02-15T15:17:54;14.10;79.00
12315;DHT22;23886;46.614;14.276;2023-02-15T15:20:37;14.30;80.50
12315;DHT22;23886;46.614;14.276;2023-02-15T15:26:22;15.30;79.00
12315;DHT22;23886;46.614;14.276;2023-02-15T15:28:55;13.90;80.10
12315;DHT22;23886;46.614;14.276;2023-02-15T15:31:25;13.80;80.40
12315;DHT22;23886;46.614;14.276;2023-02-15T15:34:28;13.20;82.30
12315;DHT22;23886;46.614;14.276;2023-02-15T15:40:28;12.90;83.50
12315;DHT22;23886;46.614;14.276;2023-02-15T15:43:34;12.50;84.60
12315;DHT22;23886;46.614;14.276;2023-02-15T15:46:25;10.80;88.40
12315;DHT22;23886;46.614;14.276;2023-02-15T15:49:01;9.90;89.30
12315;DHT22;23886;46.614;14.276;2023-02-15T15:51:31;8.70;91.50
12315;DHT22;23886;46.614;14.276;2023-02-15T15:54:00;7.70;93.00
12315;DHT22;23886;46.614;14.276;2023-02-15T15:56:32;7.10;94.00
12315;DHT22;23886;46.614;14.276;2023-02-15T15:59:02;6.50;94.60